createdAt,value
2018-01-23T00:02:25.616Z,18.67
2018-01-23T00:04:53.089Z,20.17
2018-01-23T00:07:21.317Z,20.02
2018-01-23T00:09:48.809Z,17.52
2018-01-23T00:12:16.370Z,18.70
2018-01-23T00:14:43.915Z,18.33
2018-01-23T00:17:11.475Z,17.90
2018-01-23T00:19:38.942Z,18.50
2018-01-23T00:22:06.502Z,17.73
2018-01-23T00:24:34.056Z,20.52
2018-01-23T00:27:01.519Z,18.30
2018-01-23T00:29:28.984Z,18.73
2018-01-23T00:31:57.235Z,20.02
2018-01-23T00:34:24.807Z,18.62
2018-01-23T00:36:53.075Z,17.00
2018-01-23T00:39:20.594Z,17.95
2018-01-23T00:41:48.087Z,18.50
2018-01-23T00:44:15.548Z,17.80
2018-01-23T00:46:43.003Z,18.48
2018-01-23T00:49:10.459Z,18.90
2018-01-23T00:51:37.920Z,18.20
2018-01-23T00:54:05.476Z,19.95
2018-01-23T00:56:32.935Z,20.35
2018-01-23T00:59:01.152Z,19.83
2018-01-23T01:01:28.668Z,19.10
2018-01-23T01:03:56.119Z,20.45
2018-01-23T01:06:23.679Z,18.60
2018-01-23T01:08:51.139Z,18.20
2018-01-23T01:11:18.657Z,21.90
2018-01-23T01:13:46.155Z,18.92
2018-01-23T01:16:13.616Z,20.23
2018-01-23T01:18:41.888Z,19.27
2018-01-23T01:21:09.339Z,22.95
2018-01-23T01:23:36.803Z,19.55
2018-01-23T01:26:04.259Z,19.92
2018-01-23T01:28:31.716Z,20.77
2018-01-23T01:30:59.271Z,20.08
2018-01-23T01:33:26.731Z,19.10
2018-01-23T01:35:54.199Z,19.30
2018-01-23T01:38:21.653Z,21.67
2018-01-23T01:40:49.191Z,20.65
2018-01-23T01:43:17.471Z,19.55
2018-01-23T01:45:44.932Z,19.35
2018-01-23T01:48:12.397Z,22.25
2018-01-23T01:50:39.957Z,20.60
2018-01-23T01:53:07.426Z,20.85
2018-01-23T01:55:35.665Z,20.05
2018-01-23T01:58:03.125Z,19.02
2018-01-23T02:00:30.593Z,19.00
2018-01-23T02:02:58.053Z,21.58
2018-01-23T02:05:25.613Z,23.48
2018-01-23T02:07:53.071Z,23.73
2018-01-23T02:10:20.545Z,22.02
2018-01-23T02:12:49.014Z,19.08
2018-01-23T02:15:16.569Z,21.37
2018-01-23T02:17:44.077Z,21.83
2018-01-23T02:20:11.581Z,23.08
2018-01-23T02:22:39.141Z,21.90
2018-01-23T02:25:06.700Z,23.62
2018-01-23T02:27:34.269Z,22.25
2018-01-23T02:30:01.731Z,21.70
2018-01-23T02:32:29.965Z,22.33
2018-01-23T02:34:57.441Z,22.40
2018-01-23T02:37:24.997Z,22.92
2018-01-23T02:39:52.471Z,23.15
2018-01-23T02:42:19.931Z,19.70
2018-01-23T02:44:48.156Z,21.48
2018-01-23T02:47:15.654Z,21.50
2018-01-23T02:49:43.213Z,23.60
2018-01-23T02:52:10.760Z,24.90
2018-01-23T02:54:38.311Z,23.40
2018-01-23T02:57:05.771Z,23.98
2018-01-23T02:59:33.345Z,22.60
2018-01-23T03:02:00.901Z,24.85
2018-01-23T03:04:28.360Z,23.62
2018-01-23T03:06:55.831Z,23.27
2018-01-23T03:09:24.145Z,24.70
2018-01-23T03:11:51.605Z,23.48
2018-01-23T03:14:19.110Z,23.90
2018-01-23T03:16:46.578Z,21.08
2018-01-23T03:19:14.807Z,23.52
2018-01-23T03:21:42.340Z,23.15
2018-01-23T03:24:09.806Z,23.38
2018-01-23T03:26:37.305Z,22.48
2018-01-23T03:29:04.774Z,24.00
2018-01-23T03:31:32.273Z,24.42
2018-01-23T03:33:59.740Z,22.70
2018-01-23T03:36:27.230Z,24.58
2018-01-23T03:38:54.705Z,23.77
2018-01-23T03:41:22.942Z,23.35
2018-01-23T03:43:50.408Z,25.30
2018-01-23T03:46:17.889Z,26.70
2018-01-23T03:48:45.449Z,24.45
2018-01-23T03:51:12.907Z,25.58
2018-01-23T03:53:40.457Z,25.02
2018-01-23T03:56:08.005Z,23.35
2018-01-23T03:58:35.573Z,24.05
2018-01-23T04:01:03.028Z,22.00
2018-01-23T04:03:30.504Z,23.52
2018-01-23T04:05:58.729Z,22.25
2018-01-23T04:08:26.221Z,23.70
2018-01-23T04:10:53.695Z,26.02
2018-01-23T04:13:22.003Z,24.12
2018-01-23T04:15:49.476Z,24.73
2018-01-23T04:18:16.968Z,23.70
2018-01-23T04:20:44.521Z,25.48
2018-01-23T04:23:11.993Z,25.02
2018-01-23T04:25:40.215Z,25.27
2018-01-23T04:28:07.677Z,25.35
2018-01-23T04:30:35.150Z,23.98
2018-01-23T04:33:02.637Z,23.77
2018-01-23T04:35:30.872Z,25.58
2018-01-23T04:37:58.328Z,22.52
2018-01-23T04:40:25.808Z,24.10
2018-01-23T04:42:53.286Z,24.98
2018-01-23T04:45:21.509Z,23.62
2018-01-23T04:47:49.010Z,22.95
2018-01-23T04:50:16.563Z,21.92
2018-01-23T04:52:44.798Z,24.50
2018-01-23T04:55:12.257Z,23.05
2018-01-23T04:57:39.745Z,23.75
2018-01-23T05:00:07.317Z,22.25
2018-01-23T05:02:34.789Z,20.67
2018-01-23T05:05:03.013Z,20.62
2018-01-23T05:07:30.485Z,22.10
2018-01-23T05:09:57.958Z,21.15
2018-01-23T05:12:25.526Z,21.40
2018-01-23T05:14:53.066Z,23.38
2018-01-23T05:17:20.547Z,22.55
2018-01-23T05:19:48.763Z,22.10
2018-01-23T05:22:16.253Z,22.40
2018-01-23T05:24:43.812Z,20.05
2018-01-23T05:27:11.291Z,22.08
2018-01-23T05:29:39.510Z,20.30
2018-01-23T05:32:06.988Z,22.87
2018-01-23T05:34:34.445Z,21.67
2018-01-23T05:37:02.027Z,19.45
2018-01-23T05:39:30.261Z,19.62
2018-01-23T05:41:58.484Z,20.30
2018-01-23T05:44:26.715Z,22.20
2018-01-23T05:46:54.190Z,17.55
2018-01-23T05:49:21.814Z,19.33
2018-01-23T05:51:49.280Z,19.73
2018-01-23T05:54:16.807Z,19.12
2018-01-23T05:56:45.034Z,19.70
2018-01-23T05:59:12.504Z,20.50
2018-01-23T06:01:39.968Z,17.50
2018-01-23T06:04:07.464Z,19.50
2018-01-23T06:06:34.924Z,20.62
2018-01-23T06:09:02.389Z,19.00
2018-01-23T06:11:29.914Z,18.15
2018-01-23T06:13:58.140Z,19.37
2018-01-23T06:16:25.630Z,21.67
2018-01-23T06:18:53.180Z,19.73
2018-01-23T06:21:20.709Z,20.35
2018-01-23T06:23:48.163Z,19.85
2018-01-23T06:26:15.627Z,19.23
2018-01-23T06:28:43.110Z,20.40
2018-01-23T06:31:10.599Z,21.85
2018-01-23T06:33:38.815Z,19.83
2018-01-23T06:36:06.300Z,20.35
2018-01-23T06:38:33.751Z,19.67
2018-01-23T06:41:01.216Z,22.48
2018-01-23T06:43:28.677Z,20.92
2018-01-23T06:45:56.230Z,22.05
2018-01-23T06:48:23.787Z,19.80
2018-01-23T06:50:51.455Z,19.73
2018-01-23T06:53:18.917Z,20.12
2018-01-23T06:55:46.425Z,21.98
2018-01-23T06:58:13.894Z,22.48
2018-01-23T07:00:41.361Z,21.55
2018-01-23T07:03:08.932Z,21.10
2018-01-23T07:05:36.496Z,20.55
2018-01-23T07:08:03.961Z,20.90
2018-01-23T07:10:32.198Z,19.05
2018-01-23T07:12:59.720Z,20.12
2018-01-23T07:15:27.936Z,19.80
2018-01-23T07:17:55.416Z,20.50
2018-01-23T07:20:22.882Z,20.77
2018-01-23T07:22:50.349Z,19.65
2018-01-23T07:25:18.583Z,18.92
2018-01-23T07:27:46.049Z,20.08
2018-01-23T07:30:13.523Z,19.55
2018-01-23T07:32:40.993Z,19.10
2018-01-23T07:35:09.252Z,19.80
2018-01-23T07:37:36.799Z,19.48
2018-01-23T07:40:04.289Z,20.12
2018-01-23T07:42:32.531Z,19.58
2018-01-23T07:45:00.009Z,19.55
2018-01-23T07:47:28.260Z,19.40
2018-01-23T07:49:55.930Z,18.77
2018-01-23T07:52:23.405Z,19.00
2018-01-23T07:54:50.902Z,17.60
2018-01-23T07:57:18.347Z,16.85
2018-01-23T07:59:45.856Z,20.05
2018-01-23T08:02:13.321Z,16.33
2018-01-23T08:04:42.283Z,17.30
2018-01-23T08:07:09.773Z,19.00
2018-01-23T08:09:37.244Z,16.62
2018-01-23T08:12:05.501Z,20.70
2018-01-23T08:14:32.985Z,19.05
2018-01-23T08:17:01.341Z,21.60
2018-01-23T08:19:28.809Z,21.23
2018-01-23T08:21:56.282Z,18.77
2018-01-23T08:24:23.735Z,19.45
2018-01-23T08:26:51.273Z,17.70
2018-01-23T08:29:18.737Z,20.10
2018-01-23T08:31:46.960Z,19.30
2018-01-23T08:34:14.419Z,18.87
2018-01-23T08:36:41.920Z,18.10
2018-01-23T08:39:10.164Z,19.90
2018-01-23T08:41:37.641Z,20.58
2018-01-23T08:44:05.110Z,20.33
2018-01-23T08:46:33.350Z,20.12
2018-01-23T08:49:00.818Z,21.05
2018-01-23T08:51:28.370Z,19.02
2018-01-23T08:53:55.844Z,16.52
2018-01-23T08:56:23.321Z,19.17
2018-01-23T08:58:51.577Z,17.70
2018-01-23T09:01:19.062Z,20.95
2018-01-23T09:03:47.292Z,20.23
2018-01-23T09:06:14.869Z,18.60
2018-01-23T09:08:42.429Z,18.37
2018-01-23T09:11:09.901Z,18.80
2018-01-23T09:13:38.119Z,22.80
2018-01-23T09:16:05.817Z,22.58
2018-01-23T09:18:33.385Z,26.75
2018-01-23T09:21:00.849Z,25.92
2018-01-23T09:23:29.081Z,24.00
2018-01-23T09:25:56.537Z,26.35
2018-01-23T09:28:24.009Z,23.05
2018-01-23T09:30:51.477Z,25.10
2018-01-23T09:33:18.957Z,24.10
2018-01-23T09:35:47.184Z,25.67
2018-01-23T09:38:14.673Z,24.87
2018-01-23T09:40:42.194Z,25.95
2018-01-23T09:43:10.390Z,22.60
2018-01-23T09:45:37.947Z,22.17
2018-01-23T09:48:06.188Z,23.55
2018-01-23T09:50:33.645Z,23.33
2018-01-23T09:53:01.200Z,22.80
2018-01-23T09:55:28.643Z,22.52
2018-01-23T09:57:56.121Z,23.08
2018-01-23T10:00:23.618Z,24.30
2018-01-23T10:02:51.182Z,22.13
2018-01-23T10:05:18.652Z,24.92
2018-01-23T10:07:46.881Z,25.10
2018-01-23T10:10:14.344Z,26.65
2018-01-23T10:12:41.809Z,25.83
2018-01-23T10:15:09.289Z,24.75
2018-01-23T10:17:36.753Z,24.70
2018-01-23T10:20:04.994Z,27.52
2018-01-23T10:22:32.452Z,23.20
2018-01-23T10:24:59.917Z,23.95
2018-01-23T10:27:27.478Z,24.02
2018-01-23T10:29:54.949Z,25.52
2018-01-23T10:32:23.215Z,22.02
2018-01-23T10:34:50.684Z,24.00
2018-01-23T10:37:18.149Z,23.77
2018-01-23T10:39:46.385Z,25.17
2018-01-23T10:42:13.858Z,23.77
2018-01-23T10:44:41.315Z,22.00
2018-01-23T10:47:08.793Z,22.70
2018-01-23T10:49:37.511Z,22.98
2018-01-23T10:52:04.983Z,23.00
2018-01-23T10:54:32.489Z,22.20
2018-01-23T10:56:59.993Z,23.80
2018-01-23T10:59:27.487Z,19.40
2018-01-23T11:01:55.038Z,24.75
2018-01-23T11:04:22.607Z,22.17
2018-01-23T11:06:50.073Z,22.48
2018-01-23T11:09:18.297Z,20.15
2018-01-23T11:11:45.762Z,23.02
2018-01-23T11:14:13.229Z,22.55
2018-01-23T11:16:40.812Z,21.90
2018-01-23T11:19:08.397Z,20.35
2018-01-23T11:21:36.635Z,19.98
2018-01-23T11:24:04.093Z,20.05
2018-01-23T11:26:31.565Z,20.17
2018-01-23T11:28:59.211Z,21.40
2018-01-23T11:31:26.677Z,18.52
2018-01-23T11:33:54.152Z,21.52
2018-01-23T11:36:22.397Z,18.48
2018-01-23T11:38:49.870Z,19.85
2018-01-23T11:41:18.141Z,19.12
2018-01-23T11:43:45.600Z,22.60
2018-01-23T11:46:13.156Z,22.30
2018-01-23T11:48:40.611Z,23.83
2018-01-23T11:51:08.174Z,21.75
2018-01-23T11:53:35.642Z,24.40
2018-01-23T11:56:03.889Z,21.70
2018-01-23T11:58:31.365Z,23.98
2018-01-23T12:00:58.834Z,22.25
2018-01-23T12:03:27.093Z,23.05
2018-01-23T12:05:54.554Z,21.92
2018-01-23T12:08:22.798Z,23.23
2018-01-23T12:10:50.261Z,21.50
2018-01-23T12:13:17.726Z,22.35
2018-01-23T12:15:45.205Z,22.00
2018-01-23T12:18:12.674Z,22.67
2018-01-23T12:20:40.907Z,20.77
2018-01-23T12:23:08.369Z,21.15
2018-01-23T12:25:35.827Z,20.95
2018-01-23T12:28:03.383Z,21.27
2018-01-23T12:30:30.853Z,21.85
2018-01-23T12:32:58.402Z,21.08
2018-01-23T12:35:25.876Z,20.98
2018-01-23T12:37:54.140Z,19.15
2018-01-23T12:40:23.115Z,20.77
2018-01-23T12:42:50.585Z,19.42
2018-01-23T12:45:18.061Z,19.50
2018-01-23T12:47:46.281Z,20.37
2018-01-23T12:50:13.752Z,21.65
2018-01-23T12:52:41.240Z,20.98
2018-01-23T12:55:08.709Z,20.05
2018-01-23T12:57:36.927Z,20.33
2018-01-23T13:00:04.425Z,18.87
2018-01-23T13:02:31.879Z,20.92
2018-01-23T13:04:59.430Z,18.90
2018-01-23T13:07:27.008Z,19.30
2018-01-23T13:09:55.257Z,20.70
2018-01-23T13:12:22.743Z,18.27
2018-01-23T13:14:50.220Z,18.25
2018-01-23T13:17:17.685Z,18.95
2018-01-23T13:19:45.139Z,17.73
2018-01-23T13:22:12.678Z,19.00
2018-01-23T13:24:40.944Z,19.75
2018-01-23T13:27:09.186Z,18.87
2018-01-23T13:29:36.644Z,19.58
2018-01-23T13:32:04.117Z,19.15
2018-01-23T13:34:31.680Z,18.62
2018-01-23T13:36:59.249Z,17.87
2018-01-23T13:39:28.217Z,18.62
2018-01-23T13:41:55.809Z,19.48
2018-01-23T13:44:24.031Z,21.70
2018-01-23T13:46:51.509Z,19.23
2018-01-23T13:49:19.087Z,19.50
2018-01-23T13:51:46.547Z,19.42
2018-01-23T13:54:14.010Z,17.55
2018-01-23T13:56:41.473Z,19.70
2018-01-23T13:59:09.716Z,19.12
2018-01-23T14:01:37.164Z,18.60
2018-01-23T14:04:04.631Z,18.17
2018-01-23T14:06:32.097Z,18.98
2018-01-23T14:08:59.752Z,19.65
2018-01-23T14:11:27.212Z,19.83
2018-01-23T14:13:54.682Z,19.33
2018-01-23T14:16:22.253Z,18.40
2018-01-23T14:18:50.491Z,20.12
2018-01-23T14:21:17.955Z,19.83
2018-01-23T14:23:45.539Z,18.37
2018-01-23T14:26:13.801Z,18.42
2018-01-23T14:28:41.257Z,19.00
2018-01-23T14:31:08.808Z,17.80
2018-01-23T14:33:36.277Z,17.98
2018-01-23T14:36:04.521Z,18.42
2018-01-23T14:38:32.054Z,18.08
2018-01-23T14:40:59.614Z,19.58
2018-01-23T14:43:27.065Z,18.70
2018-01-23T14:45:54.543Z,17.17
2018-01-23T14:48:22.003Z,18.17
2018-01-23T14:50:49.473Z,18.70
2018-01-23T14:53:16.949Z,19.30
2018-01-23T14:55:44.500Z,18.83
2018-01-23T14:58:12.010Z,20.33
2018-01-23T15:00:39.477Z,17.60
2018-01-23T15:03:06.935Z,19.23
2018-01-23T15:05:34.456Z,18.80
2018-01-23T15:08:02.706Z,19.00
2018-01-23T15:10:30.269Z,22.00
2018-01-23T15:12:57.746Z,19.42
2018-01-23T15:15:25.968Z,19.55
2018-01-23T15:17:53.446Z,21.90
2018-01-23T15:20:20.910Z,19.77
2018-01-23T15:22:48.469Z,20.08
2018-01-23T15:25:15.937Z,21.15
2018-01-23T15:27:44.777Z,20.23
2018-01-23T15:30:12.273Z,20.85
2018-01-23T15:32:39.731Z,20.60
2018-01-23T15:35:07.192Z,20.35
2018-01-23T15:37:34.666Z,22.33
2018-01-23T15:40:02.894Z,21.25
2018-01-23T15:42:30.356Z,22.00
2018-01-23T15:44:57.823Z,19.77
2018-01-23T15:47:25.299Z,23.05
2018-01-23T15:49:52.844Z,20.12
2018-01-23T15:52:20.404Z,21.20
2018-01-23T15:54:47.864Z,21.30
2018-01-23T15:57:15.428Z,22.20
2018-01-23T15:59:42.926Z,20.95
2018-01-23T16:02:10.400Z,23.23
2018-01-23T16:07:10.741Z,23.95
2018-01-23T16:09:38.225Z,21.17
2018-01-23T16:12:05.697Z,22.52
2018-01-23T16:14:33.249Z,21.40
2018-01-23T16:17:00.811Z,21.60
2018-01-23T16:19:28.272Z,21.37
2018-01-23T16:21:55.863Z,22.85
2018-01-23T16:24:23.338Z,21.92
2018-01-23T16:26:50.845Z,22.77
2018-01-23T16:29:18.483Z,21.77
2018-01-23T16:31:46.009Z,21.90
2018-01-23T16:34:13.480Z,22.00
2018-01-23T16:36:40.978Z,21.05
2018-01-23T16:39:08.442Z,21.33
2018-01-23T16:41:36.708Z,21.62
2018-01-23T16:44:04.267Z,20.90
2018-01-23T16:46:31.736Z,18.77
2018-01-23T16:48:59.997Z,22.25
2018-01-23T16:51:27.470Z,20.60
2018-01-23T16:53:55.696Z,23.02
2018-01-23T16:56:23.186Z,20.45
2018-01-23T16:58:50.655Z,23.33
2018-01-23T17:01:18.898Z,21.70
2018-01-23T17:03:46.369Z,20.60
2018-01-23T17:06:13.957Z,22.73
2018-01-23T17:08:42.213Z,20.08
2018-01-23T17:11:09.679Z,21.80
2018-01-23T17:13:37.913Z,21.55
2018-01-23T17:16:05.395Z,21.27
2018-01-23T17:18:32.956Z,22.65
2018-01-23T17:21:00.509Z,20.95
2018-01-23T17:23:28.109Z,22.85
2018-01-23T17:25:55.664Z,19.23
2018-01-23T17:28:23.888Z,19.85
2018-01-23T17:30:51.359Z,21.70
2018-01-23T17:33:18.916Z,21.77
2018-01-23T17:35:47.890Z,21.62
2018-01-23T17:38:15.374Z,19.02
2018-01-23T17:40:42.827Z,19.30
2018-01-23T17:43:10.376Z,19.62
2018-01-23T17:45:37.935Z,17.65
2018-01-23T17:48:05.409Z,18.95
2018-01-23T17:50:32.977Z,18.83
2018-01-23T17:53:01.214Z,17.58
2018-01-23T17:55:28.693Z,17.95
2018-01-23T17:57:56.157Z,17.65
2018-01-23T18:00:28.885Z,18.50
2018-01-23T18:02:56.357Z,18.27
2018-01-23T18:05:23.817Z,18.50
2018-01-23T18:07:51.280Z,19.62
2018-01-23T18:10:18.753Z,20.42
2018-01-23T18:12:46.325Z,17.65
2018-01-23T18:15:14.565Z,18.62
2018-01-23T18:17:42.033Z,19.12
2018-01-23T18:20:09.609Z,19.08
2018-01-23T18:22:37.075Z,18.48
2018-01-23T18:25:05.389Z,18.73
2018-01-23T18:27:32.835Z,18.42
2018-01-23T18:30:00.313Z,17.20
2018-01-23T18:32:27.799Z,18.98
2018-01-23T18:34:55.269Z,16.62
2018-01-23T18:37:22.741Z,16.35
2018-01-23T18:39:50.977Z,18.27
2018-01-23T18:42:18.505Z,16.12
2018-01-23T18:44:46.009Z,18.42
2018-01-23T18:47:13.569Z,17.27
2018-01-23T18:49:41.042Z,15.75
2018-01-23T18:52:09.264Z,16.60
2018-01-23T18:54:36.724Z,17.73
2018-01-23T18:57:04.195Z,16.77
2018-01-23T18:59:31.724Z,15.07
2018-01-23T19:01:59.185Z,16.45
2018-01-23T19:04:26.694Z,15.75
2018-01-23T19:06:54.173Z,15.25
2018-01-23T19:09:21.829Z,16.45
2018-01-23T19:11:50.062Z,15.35
2018-01-23T19:14:17.537Z,15.70
2018-01-23T19:16:45.101Z,14.95
2018-01-23T19:19:12.558Z,15.98
2018-01-23T19:21:40.033Z,16.00
2018-01-23T19:24:08.268Z,16.98
2018-01-23T19:26:35.741Z,15.57
2018-01-23T19:29:03.296Z,15.05
2018-01-23T19:31:30.777Z,15.38
2018-01-23T19:33:59.008Z,15.35
2018-01-23T19:36:26.472Z,14.90
2018-01-23T19:38:53.936Z,13.85
2018-01-23T19:41:21.410Z,15.65
2018-01-23T19:43:48.883Z,14.50
2018-01-23T19:46:17.114Z,12.93
2018-01-23T19:48:44.890Z,13.90
2018-01-23T19:51:14.516Z,13.02
2018-01-23T19:53:42.895Z,13.18
2018-01-23T19:56:10.608Z,14.85
2018-01-23T19:58:38.823Z,13.65
2018-01-23T20:01:06.277Z,11.98
2018-01-23T20:03:34.537Z,12.75
2018-01-23T20:06:02.032Z,13.82
2018-01-23T20:08:30.285Z,13.73
2018-01-23T20:10:57.751Z,14.23
2018-01-23T20:13:25.990Z,12.50
2018-01-23T20:15:53.468Z,13.13
2018-01-23T20:18:22.505Z,13.80
2018-01-23T20:20:49.969Z,13.30
2018-01-23T20:23:17.460Z,14.15
2018-01-23T20:25:44.938Z,13.38
2018-01-23T20:28:12.490Z,12.45
2018-01-23T20:30:39.980Z,13.85
2018-01-23T20:33:08.205Z,11.85
2018-01-23T20:35:35.662Z,13.10
2018-01-23T20:38:03.136Z,12.23
2018-01-23T20:40:30.607Z,12.57
2018-01-23T20:42:58.161Z,11.88
2018-01-23T20:45:25.713Z,12.80
2018-01-23T20:47:53.281Z,11.15
2018-01-23T20:50:21.548Z,11.77
2018-01-23T20:52:49.008Z,12.68
2018-01-23T20:55:16.538Z,11.20
2018-01-23T20:57:44.010Z,13.13
2018-01-23T21:00:11.478Z,11.30
2018-01-23T21:02:39.047Z,11.48
2018-01-23T21:05:06.504Z,10.75
2018-01-23T21:07:34.727Z,10.35
2018-01-23T21:10:02.188Z,11.02
2018-01-23T21:12:29.665Z,10.35
2018-01-23T21:14:57.242Z,11.43
2018-01-23T21:17:24.711Z,10.30
2018-01-23T21:19:52.949Z,10.23
2018-01-23T21:22:20.413Z,9.70
2018-01-23T21:24:48.020Z,10.10
2018-01-23T21:27:16.225Z,8.88
2018-01-23T21:29:43.771Z,10.00
2018-01-23T21:32:11.229Z,10.90
2018-01-23T21:34:38.680Z,9.77
2018-01-23T21:37:06.149Z,9.45
2018-01-23T21:39:33.635Z,8.60
2018-01-23T21:42:01.113Z,9.95
2018-01-23T21:44:28.921Z,8.77
2018-01-23T21:46:56.564Z,9.55
2018-01-23T21:49:24.022Z,9.18
2018-01-23T21:51:51.489Z,9.48
2018-01-23T21:54:18.949Z,8.55
2018-01-23T21:56:46.407Z,8.52
2018-01-23T21:59:13.863Z,8.70
2018-01-23T22:01:41.332Z,9.45
2018-01-23T22:04:08.804Z,7.87
2018-01-23T22:06:36.269Z,8.57
2018-01-23T22:09:03.753Z,10.25
2018-01-23T22:11:31.977Z,8.30
2018-01-23T22:13:59.495Z,10.07
2018-01-23T22:16:27.082Z,8.27
2018-01-23T22:18:54.588Z,8.98
2018-01-23T22:21:22.051Z,7.60
2018-01-23T22:23:49.610Z,7.00
2018-01-23T22:26:17.067Z,7.60
2018-01-23T22:28:44.535Z,7.62
2018-01-23T22:31:12.765Z,8.65
2018-01-23T22:33:40.234Z,8.48
2018-01-23T22:36:07.705Z,7.70
2018-01-23T22:38:35.316Z,7.20
2018-01-23T22:41:02.778Z,8.00
2018-01-23T22:43:30.247Z,5.80
2018-01-23T22:45:57.740Z,6.60
2018-01-23T22:48:25.288Z,7.93
2018-01-23T22:50:52.845Z,6.35
2018-01-23T22:53:20.309Z,6.68
2018-01-23T22:55:47.823Z,8.32
2018-01-23T22:58:15.280Z,6.22
2018-01-23T23:00:42.753Z,6.40
2018-01-23T23:03:10.212Z,7.65
2018-01-23T23:05:37.668Z,6.50
2018-01-23T23:08:05.151Z,6.05
2018-01-23T23:10:32.681Z,6.40
2018-01-23T23:13:00.161Z,6.95
2018-01-23T23:15:27.616Z,6.60
2018-01-23T23:17:55.173Z,6.45
2018-01-23T23:20:22.736Z,6.70
2018-01-23T23:22:50.191Z,7.28
2018-01-23T23:25:17.657Z,6.97
2018-01-23T23:27:45.220Z,6.95
2018-01-23T23:30:12.773Z,7.30
2018-01-23T23:32:40.329Z,6.57
2018-01-23T23:35:07.783Z,6.45
2018-01-23T23:37:35.336Z,6.43
2018-01-23T23:40:03.614Z,6.37
2018-01-23T23:42:31.163Z,7.97
2018-01-23T23:44:58.633Z,6.93
2018-01-23T23:47:26.186Z,6.45
2018-01-23T23:49:53.704Z,6.95
2018-01-23T23:52:21.208Z,6.93
2018-01-23T23:54:48.656Z,6.43
2018-01-23T23:57:16.217Z,6.70
2018-01-23T23:59:43.786Z,9.07
